sensor_id;sensor_type;location;lat;lon;timestamp;pressure;altitude;pressure_sealevel;temperature;humidity
49645;BME280;36494;50.730;-1.932;2022-12-07T00:00:11;101902.98;;;3.57;100.00
49645;BME280;36494;50.730;-1.932;2022-12-07T00:02:35;101901.11;;;3.57;100.00
49645;BME280;36494;50.730;-1.932;2022-12-07T00:05:01;101899.90;;;3.55;100.00
49645;BME280;36494;50.730;-1.932;2022-12-07T00:07:27;101895.02;;;3.55;100.00
49645;BME280;36494;50.730;-1.932;2022-12-07T00:09:52;101897.63;;;3.51;100.00
49645;BME280;36494;50.730;-1.932;2022-12-07T00:12:18;101893.01;;;3.49;100.00
49645;BME280;36494;50.730;-1.932;2022-12-07T00:14:43;101891.08;;;3.46;100.00
49645;BME280;36494;50.730;-1.932;2022-12-07T00:17:09;101889.24;;;3.43;100.00
49645;BME280;36494;50.730;-1.932;2022-12-07T00:19:34;101883.81;;;3.42;100.00
49645;BME280;36494;50.730;-1.932;2022-12-07T00:21:59;101879.64;;;3.39;100.00
49645;BME280;36494;50.730;-1.932;2022-12-07T00:24:25;101875.59;;;3.34;100.00
49645;BME280;36494;50.730;-1.932;2022-12-07T00:26:51;101873.18;;;3.31;100.00
49645;BME280;36494;50.730;-1.932;2022-12-07T00:29:18;101872.54;;;3.28;100.00
49645;BME280;36494;50.730;-1.932;2022-12-07T00:31:42;101870.40;;;3.24;100.00
49645;BME280;36494;50.730;-1.932;2022-12-07T00:34:12;101871.71;;;3.21;100.00
49645;BME280;36494;50.730;-1.932;2022-12-07T00:36:32;101869.26;;;3.18;100.00
49645;BME280;36494;50.730;-1.932;2022-12-07T00:38:59;101865.21;;;3.15;100.00
49645;BME280;36494;50.730;-1.932;2022-12-07T00:41:25;101865.47;;;3.12;100.00
49645;BME280;36494;50.730;-1.932;2022-12-07T00:43:50;101863.09;;;3.09;100.00
49645;BME280;36494;50.730;-1.932;2022-12-07T00:46:16;101858.37;;;3.06;100.00
49645;BME280;36494;50.730;-1.932;2022-12-07T00:48:40;101858.38;;;3.02;100.00
49645;BME280;36494;50.730;-1.932;2022-12-07T00:51:06;101856.56;;;3.01;100.00
49645;BME280;36494;50.730;-1.932;2022-12-07T00:53:31;101856.10;;;2.99;100.00
49645;BME280;36494;50.730;-1.932;2022-12-07T00:55:56;101853.67;;;2.96;100.00
49645;BME280;36494;50.730;-1.932;2022-12-07T00:58:22;101852.81;;;2.92;100.00
49645;BME280;36494;50.730;-1.932;2022-12-07T01:00:47;101853.03;;;2.91;100.00
49645;BME280;36494;50.730;-1.932;2022-12-07T01:03:14;101848.98;;;2.86;100.00
49645;BME280;36494;50.730;-1.932;2022-12-07T01:05:38;101849.49;;;2.86;100.00
49645;BME280;36494;50.730;-1.932;2022-12-07T01:08:04;101849.71;;;2.82;100.00
49645;BME280;36494;50.730;-1.932;2022-12-07T01:10:29;101850.41;;;2.80;100.00
49645;BME280;36494;50.730;-1.932;2022-12-07T01:12:54;101848.59;;;2.78;100.00
49645;BME280;36494;50.730;-1.932;2022-12-07T01:15:20;101846.96;;;2.76;100.00
49645;BME280;36494;50.730;-1.932;2022-12-07T01:17:45;101848.32;;;2.74;100.00
49645;BME280;36494;50.730;-1.932;2022-12-07T01:20:12;101846.40;;;2.72;100.00
49645;BME280;36494;50.730;-1.932;2022-12-07T01:22:36;101844.19;;;2.71;100.00
49645;BME280;36494;50.730;-1.932;2022-12-07T01:25:01;101843.30;;;2.68;100.00
49645;BME280;36494;50.730;-1.932;2022-12-07T01:27:27;101843.85;;;2.66;100.00
49645;BME280;36494;50.730;-1.932;2022-12-07T01:29:52;101844.08;;;2.63;100.00
49645;BME280;36494;50.730;-1.932;2022-12-07T01:32:17;101841.23;;;2.62;100.00
49645;BME280;36494;50.730;-1.932;2022-12-07T01:34:42;101845.42;;;2.59;100.00
49645;BME280;36494;50.730;-1.932;2022-12-07T01:37:07;101845.75;;;2.58;100.00
49645;BME280;36494;50.730;-1.932;2022-12-07T01:39:33;101840.52;;;2.57;100.00
49645;BME280;36494;50.730;-1.932;2022-12-07T01:41:59;101839.90;;;2.53;100.00
49645;BME280;36494;50.730;-1.932;2022-12-07T01:44:25;101843.66;;;2.52;100.00
49645;BME280;36494;50.730;-1.932;2022-12-07T01:46:50;101847.65;;;2.50;100.00
49645;BME280;36494;50.730;-1.932;2022-12-07T01:49:18;101846.14;;;2.49;100.00
49645;BME280;36494;50.730;-1.932;2022-12-07T01:51:40;101845.16;;;2.47;100.00
49645;BME280;36494;50.730;-1.932;2022-12-07T01:54:06;101842.75;;;2.45;100.00
49645;BME280;36494;50.730;-1.932;2022-12-07T01:56:32;101843.18;;;2.45;100.00
49645;BME280;36494;50.730;-1.932;2022-12-07T01:58:58;101843.23;;;2.42;100.00
49645;BME280;36494;50.730;-1.932;2022-12-07T02:01:22;101842.42;;;2.41;100.00
49645;BME280;36494;50.730;-1.932;2022-12-07T02:03:48;101837.97;;;2.37;100.00
49645;BME280;36494;50.730;-1.932;2022-12-07T02:06:16;101836.31;;;2.38;100.00
49645;BME280;36494;50.730;-1.932;2022-12-07T02:08:39;101838.13;;;2.36;100.00
49645;BME280;36494;50.730;-1.932;2022-12-07T02:11:05;101837.64;;;2.33;100.00
49645;BME280;36494;50.730;-1.932;2022-12-07T02:13:31;101841.38;;;2.32;100.00
49645;BME280;36494;50.730;-1.932;2022-12-07T02:16:06;101846.57;;;2.29;100.00
49645;BME280;36494;50.730;-1.932;2022-12-07T02:18:25;101852.38;;;2.28;100.00
49645;BME280;36494;50.730;-1.932;2022-12-07T02:20:50;101855.75;;;2.26;100.00
49645;BME280;36494;50.730;-1.932;2022-12-07T02:25:54;101855.14;;;2.23;100.00
49645;BME280;36494;50.730;-1.932;2022-12-07T02:28:05;101853.19;;;2.22;100.00
49645;BME280;36494;50.730;-1.932;2022-12-07T02:30:31;101851.71;;;2.21;100.00
49645;BME280;36494;50.730;-1.932;2022-12-07T02:32:58;101852.85;;;2.19;100.00
49645;BME280;36494;50.730;-1.932;2022-12-07T02:35:20;101853.91;;;2.17;100.00
49645;BME280;36494;50.730;-1.932;2022-12-07T02:37:51;101855.66;;;2.17;100.00
49645;BME280;36494;50.730;-1.932;2022-12-07T02:40:11;101855.24;;;2.14;100.00
49645;BME280;36494;50.730;-1.932;2022-12-07T02:42:40;101857.48;;;2.13;100.00
49645;BME280;36494;50.730;-1.932;2022-12-07T02:45:00;101853.96;;;2.13;100.00
49645;BME280;36494;50.730;-1.932;2022-12-07T02:47:25;101852.78;;;2.14;100.00
49645;BME280;36494;50.730;-1.932;2022-12-07T02:49:51;101854.23;;;2.14;100.00
49645;BME280;36494;50.730;-1.932;2022-12-07T02:52:15;101850.61;;;2.16;100.00
49645;BME280;36494;50.730;-1.932;2022-12-07T02:54:41;101850.64;;;2.16;100.00
49645;BME280;36494;50.730;-1.932;2022-12-07T02:57:18;101847.42;;;2.16;100.00
49645;BME280;36494;50.730;-1.932;2022-12-07T02:59:40;101843.38;;;2.18;100.00
49645;BME280;36494;50.730;-1.932;2022-12-07T03:02:03;101839.90;;;2.17;100.00
49645;BME280;36494;50.730;-1.932;2022-12-07T03:04:32;101837.64;;;2.20;100.00
49645;BME280;36494;50.730;-1.932;2022-12-07T03:06:53;101840.20;;;2.20;100.00
49645;BME280;36494;50.730;-1.932;2022-12-07T03:09:15;101843.17;;;2.22;100.00
49645;BME280;36494;50.730;-1.932;2022-12-07T03:11:43;101841.00;;;2.23;100.00
49645;BME280;36494;50.730;-1.932;2022-12-07T03:14:08;101839.13;;;2.25;100.00
49645;BME280;36494;50.730;-1.932;2022-12-07T03:16:33;101835.30;;;2.27;100.00
49645;BME280;36494;50.730;-1.932;2022-12-07T03:19:01;101832.85;;;2.27;100.00
49645;BME280;36494;50.730;-1.932;2022-12-07T03:21:22;101834.45;;;2.31;100.00
49645;BME280;36494;50.730;-1.932;2022-12-07T03:23:49;101834.28;;;2.30;100.00
49645;BME280;36494;50.730;-1.932;2022-12-07T03:26:12;101831.41;;;2.32;100.00
49645;BME280;36494;50.730;-1.932;2022-12-07T03:28:41;101833.82;;;2.34;100.00
49645;BME280;36494;50.730;-1.932;2022-12-07T03:31:05;101831.07;;;2.35;100.00
49645;BME280;36494;50.730;-1.932;2022-12-07T03:33:31;101833.25;;;2.36;100.00
49645;BME280;36494;50.730;-1.932;2022-12-07T03:35:55;101833.55;;;2.36;100.00
49645;BME280;36494;50.730;-1.932;2022-12-07T03:38:21;101832.88;;;2.36;100.00
49645;BME280;36494;50.730;-1.932;2022-12-07T03:40:45;101832.85;;;2.35;100.00
49645;BME280;36494;50.730;-1.932;2022-12-07T03:43:08;101833.78;;;2.37;100.00
49645;BME280;36494;50.730;-1.932;2022-12-07T03:45:38;101831.57;;;2.35;100.00
49645;BME280;36494;50.730;-1.932;2022-12-07T03:48:03;101834.07;;;2.36;100.00
49645;BME280;36494;50.730;-1.932;2022-12-07T03:50:29;101835.43;;;2.34;100.00
49645;BME280;36494;50.730;-1.932;2022-12-07T03:52:54;101837.96;;;2.36;100.00
49645;BME280;36494;50.730;-1.932;2022-12-07T03:55:19;101839.21;;;2.35;100.00
49645;BME280;36494;50.730;-1.932;2022-12-07T03:57:42;101838.35;;;2.37;100.00
49645;BME280;36494;50.730;-1.932;2022-12-07T04:00:09;101837.64;;;2.37;100.00
49645;BME280;36494;50.730;-1.932;2022-12-07T04:02:33;101839.60;;;2.37;100.00
49645;BME280;36494;50.730;-1.932;2022-12-07T04:04:57;101840.14;;;2.36;100.00
49645;BME280;36494;50.730;-1.932;2022-12-07T04:07:23;101841.44;;;2.32;100.00
49645;BME280;36494;50.730;-1.932;2022-12-07T04:09:48;101841.18;;;2.33;100.00
49645;BME280;36494;50.730;-1.932;2022-12-07T04:12:14;101837.71;;;2.32;100.00
49645;BME280;36494;50.730;-1.932;2022-12-07T04:14:39;101836.07;;;2.36;100.00
49645;BME280;36494;50.730;-1.932;2022-12-07T04:17:04;101830.32;;;2.33;100.00
49645;BME280;36494;50.730;-1.932;2022-12-07T04:19:31;101828.30;;;2.33;100.00
49645;BME280;36494;50.730;-1.932;2022-12-07T04:21:56;101824.31;;;2.33;100.00
49645;BME280;36494;50.730;-1.932;2022-12-07T04:24:21;101826.13;;;2.37;100.00
49645;BME280;36494;50.730;-1.932;2022-12-07T04:26:46;101823.03;;;2.38;100.00
49645;BME280;36494;50.730;-1.932;2022-12-07T04:29:13;101824.79;;;2.34;100.00
49645;BME280;36494;50.730;-1.932;2022-12-07T04:31:37;101824.31;;;2.35;100.00
49645;BME280;36494;50.730;-1.932;2022-12-07T04:34:03;101819.77;;;2.37;100.00
49645;BME280;36494;50.730;-1.932;2022-12-07T04:36:28;101821.09;;;2.38;100.00
49645;BME280;36494;50.730;-1.932;2022-12-07T04:38:54;101818.57;;;2.37;100.00
49645;BME280;36494;50.730;-1.932;2022-12-07T04:41:19;101815.90;;;2.40;100.00
49645;BME280;36494;50.730;-1.932;2022-12-07T04:43:45;101817.13;;;2.42;100.00
49645;BME280;36494;50.730;-1.932;2022-12-07T04:46:10;101815.20;;;2.41;100.00
49645;BME280;36494;50.730;-1.932;2022-12-07T04:48:35;101812.43;;;2.37;100.00
49645;BME280;36494;50.730;-1.932;2022-12-07T04:51:02;101814.40;;;2.37;100.00
49645;BME280;36494;50.730;-1.932;2022-12-07T04:53:26;101811.96;;;2.39;100.00
49645;BME280;36494;50.730;-1.932;2022-12-07T04:55:51;101814.79;;;2.37;100.00
49645;BME280;36494;50.730;-1.932;2022-12-07T04:58:17;101816.13;;;2.39;100.00
49645;BME280;36494;50.730;-1.932;2022-12-07T05:00:42;101815.42;;;2.39;100.00
49645;BME280;36494;50.730;-1.932;2022-12-07T05:03:08;101814.82;;;2.44;100.00
49645;BME280;36494;50.730;-1.932;2022-12-07T05:05:33;101813.16;;;2.40;100.00
49645;BME280;36494;50.730;-1.932;2022-12-07T05:07:58;101811.91;;;2.42;100.00
49645;BME280;36494;50.730;-1.932;2022-12-07T05:10:24;101808.94;;;2.46;100.00
49645;BME280;36494;50.730;-1.932;2022-12-07T05:12:49;101802.90;;;2.43;100.00
49645;BME280;36494;50.730;-1.932;2022-12-07T05:15:15;101806.26;;;2.44;100.00
49645;BME280;36494;50.730;-1.932;2022-12-07T05:17:41;101804.90;;;2.46;100.00
49645;BME280;36494;50.730;-1.932;2022-12-07T05:20:07;101804.20;;;2.49;100.00
49645;BME280;36494;50.730;-1.932;2022-12-07T05:22:31;101801.56;;;2.42;100.00
49645;BME280;36494;50.730;-1.932;2022-12-07T05:24:57;101797.40;;;2.44;100.00
49645;BME280;36494;50.730;-1.932;2022-12-07T05:27:23;101800.18;;;2.45;100.00
49645;BME280;36494;50.730;-1.932;2022-12-07T05:29:50;101797.88;;;2.50;100.00
49645;BME280;36494;50.730;-1.932;2022-12-07T05:32:14;101797.39;;;2.46;100.00
49645;BME280;36494;50.730;-1.932;2022-12-07T05:34:40;101800.60;;;2.47;100.00
49645;BME280;36494;50.730;-1.932;2022-12-07T05:37:05;101805.81;;;2.48;100.00
49645;BME280;36494;50.730;-1.932;2022-12-07T05:39:30;101811.64;;;2.49;100.00
49645;BME280;36494;50.730;-1.932;2022-12-07T05:41:56;101811.81;;;2.52;100.00
49645;BME280;36494;50.730;-1.932;2022-12-07T05:44:21;101816.33;;;2.54;100.00
49645;BME280;36494;50.730;-1.932;2022-12-07T05:46:46;101819.86;;;2.50;100.00
49645;BME280;36494;50.730;-1.932;2022-12-07T05:49:12;101820.56;;;2.53;100.00
49645;BME280;36494;50.730;-1.932;2022-12-07T05:51:37;101819.56;;;2.55;100.00
49645;BME280;36494;50.730;-1.932;2022-12-07T05:54:03;101816.60;;;2.53;100.00
49645;BME280;36494;50.730;-1.932;2022-12-07T05:56:28;101817.18;;;2.53;100.00
49645;BME280;36494;50.730;-1.932;2022-12-07T05:58:54;101819.01;;;2.55;100.00
49645;BME280;36494;50.730;-1.932;2022-12-07T06:01:20;101819.34;;;2.58;100.00
49645;BME280;36494;50.730;-1.932;2022-12-07T06:03:45;101821.71;;;2.57;100.00
49645;BME280;36494;50.730;-1.932;2022-12-07T06:06:10;101819.13;;;2.59;100.00
49645;BME280;36494;50.730;-1.932;2022-12-07T06:08:36;101815.54;;;2.55;100.00
49645;BME280;36494;50.730;-1.932;2022-12-07T06:11:02;101816.61;;;2.58;100.00
49645;BME280;36494;50.730;-1.932;2022-12-07T06:13:27;101814.82;;;2.61;100.00
49645;BME280;36494;50.730;-1.932;2022-12-07T06:15:52;101813.08;;;2.63;100.00
49645;BME280;36494;50.730;-1.932;2022-12-07T06:18:17;101813.79;;;2.62;100.00
49645;BME280;36494;50.730;-1.932;2022-12-07T06:20:43;101812.84;;;2.64;100.00
49645;BME280;36494;50.730;-1.932;2022-12-07T06:23:09;101813.30;;;2.64;100.00
49645;BME280;36494;50.730;-1.932;2022-12-07T06:25:34;101810.25;;;2.67;100.00
49645;BME280;36494;50.730;-1.932;2022-12-07T06:27:59;101810.45;;;2.67;100.00
49645;BME280;36494;50.730;-1.932;2022-12-07T06:30:25;101810.26;;;2.72;100.00
49645;BME280;36494;50.730;-1.932;2022-12-07T06:32:51;101809.83;;;2.68;100.00
49645;BME280;36494;50.730;-1.932;2022-12-07T06:35:16;101809.23;;;2.68;100.00
49645;BME280;36494;50.730;-1.932;2022-12-07T06:37:42;101809.65;;;2.69;100.00
49645;BME280;36494;50.730;-1.932;2022-12-07T06:40:08;101812.67;;;2.69;100.00
49645;BME280;36494;50.730;-1.932;2022-12-07T06:42:32;101811.08;;;2.68;100.00
49645;BME280;36494;50.730;-1.932;2022-12-07T06:44:58;101815.13;;;2.72;100.00
49645;BME280;36494;50.730;-1.932;2022-12-07T06:47:23;101818.76;;;2.71;100.00
49645;BME280;36494;50.730;-1.932;2022-12-07T06:49:49;101816.44;;;2.73;100.00
49645;BME280;36494;50.730;-1.932;2022-12-07T06:52:14;101819.51;;;2.75;100.00
49645;BME280;36494;50.730;-1.932;2022-12-07T06:54:40;101819.42;;;2.74;100.00
49645;BME280;36494;50.730;-1.932;2022-12-07T06:57:05;101820.54;;;2.73;100.00
49645;BME280;36494;50.730;-1.932;2022-12-07T06:59:31;101819.96;;;2.72;100.00
49645;BME280;36494;50.730;-1.932;2022-12-07T07:01:56;101820.95;;;2.75;100.00
49645;BME280;36494;50.730;-1.932;2022-12-07T07:04:22;101821.75;;;2.74;100.00
49645;BME280;36494;50.730;-1.932;2022-12-07T07:06:48;101820.04;;;2.75;100.00
49645;BME280;36494;50.730;-1.932;2022-12-07T07:09:14;101819.17;;;2.75;100.00
49645;BME280;36494;50.730;-1.932;2022-12-07T07:11:39;101815.40;;;2.74;100.00
49645;BME280;36494;50.730;-1.932;2022-12-07T07:14:05;101814.96;;;2.76;100.00
49645;BME280;36494;50.730;-1.932;2022-12-07T07:16:30;101815.96;;;2.78;100.00
49645;BME280;36494;50.730;-1.932;2022-12-07T07:18:56;101818.53;;;2.78;100.00
49645;BME280;36494;50.730;-1.932;2022-12-07T07:21:22;101821.03;;;2.77;100.00
49645;BME280;36494;50.730;-1.932;2022-12-07T07:23:48;101821.43;;;2.80;100.00
49645;BME280;36494;50.730;-1.932;2022-12-07T07:26:13;101820.99;;;2.78;100.00
49645;BME280;36494;50.730;-1.932;2022-12-07T07:28:39;101820.42;;;2.77;100.00
49645;BME280;36494;50.730;-1.932;2022-12-07T07:31:04;101821.96;;;2.77;100.00
49645;BME280;36494;50.730;-1.932;2022-12-07T07:33:29;101822.75;;;2.79;100.00
49645;BME280;36494;50.730;-1.932;2022-12-07T07:35:55;101825.28;;;2.76;100.00
49645;BME280;36494;50.730;-1.932;2022-12-07T07:38:20;101824.74;;;2.72;100.00
49645;BME280;36494;50.730;-1.932;2022-12-07T07:40:45;101830.69;;;2.77;100.00
49645;BME280;36494;50.730;-1.932;2022-12-07T07:43:10;101833.59;;;2.73;100.00
49645;BME280;36494;50.730;-1.932;2022-12-07T07:45:35;101832.72;;;2.77;100.00
49645;BME280;36494;50.730;-1.932;2022-12-07T07:48:01;101829.62;;;2.75;100.00
49645;BME280;36494;50.730;-1.932;2022-12-07T07:50:25;101826.14;;;2.75;100.00
49645;BME280;36494;50.730;-1.932;2022-12-07T07:52:51;101828.93;;;2.74;100.00
49645;BME280;36494;50.730;-1.932;2022-12-07T07:55:16;101833.88;;;2.73;100.00
49645;BME280;36494;50.730;-1.932;2022-12-07T07:57:42;101833.56;;;2.74;100.00
49645;BME280;36494;50.730;-1.932;2022-12-07T08:00:10;101829.44;;;2.76;100.00
49645;BME280;36494;50.730;-1.932;2022-12-07T08:02:33;101830.74;;;2.76;100.00
49645;BME280;36494;50.730;-1.932;2022-12-07T08:04:59;101829.49;;;2.67;100.00
49645;BME280;36494;50.730;-1.932;2022-12-07T08:07:26;101831.59;;;2.69;100.00
49645;BME280;36494;50.730;-1.932;2022-12-07T08:09:51;101835.29;;;2.68;100.00
49645;BME280;36494;50.730;-1.932;2022-12-07T08:12:17;101834.74;;;2.72;100.00
49645;BME280;36494;50.730;-1.932;2022-12-07T08:14:42;101830.93;;;2.67;100.00
49645;BME280;36494;50.730;-1.932;2022-12-07T08:17:07;101836.07;;;2.72;100.00
49645;BME280;36494;50.730;-1.932;2022-12-07T08:19:33;101838.43;;;2.70;100.00
49645;BME280;36494;50.730;-1.932;2022-12-07T08:21:58;101839.74;;;2.69;100.00
49645;BME280;36494;50.730;-1.932;2022-12-07T08:24:23;101840.69;;;2.71;100.00
49645;BME280;36494;50.730;-1.932;2022-12-07T08:26:49;101838.81;;;2.69;100.00
49645;BME280;36494;50.730;-1.932;2022-12-07T08:29:14;101834.09;;;2.74;100.00
49645;BME280;36494;50.730;-1.932;2022-12-07T08:31:40;101834.95;;;2.73;100.00
49645;BME280;36494;50.730;-1.932;2022-12-07T08:34:05;101834.35;;;2.77;100.00
49645;BME280;36494;50.730;-1.932;2022-12-07T08:36:31;101833.42;;;2.78;100.00
49645;BME280;36494;50.730;-1.932;2022-12-07T08:38:57;101828.89;;;2.80;100.00
49645;BME280;36494;50.730;-1.932;2022-12-07T08:41:22;101826.37;;;2.79;100.00
49645;BME280;36494;50.730;-1.932;2022-12-07T08:43:48;101827.41;;;2.80;100.00
49645;BME280;36494;50.730;-1.932;2022-12-07T08:46:16;101828.35;;;2.80;100.00
49645;BME280;36494;50.730;-1.932;2022-12-07T08:48:43;101834.30;;;2.79;100.00
49645;BME280;36494;50.730;-1.932;2022-12-07T08:51:04;101835.31;;;2.80;100.00
49645;BME280;36494;50.730;-1.932;2022-12-07T08:53:32;101833.96;;;2.78;100.00
49645;BME280;36494;50.730;-1.932;2022-12-07T08:55:56;101834.10;;;2.78;100.00
49645;BME280;36494;50.730;-1.932;2022-12-07T08:58:21;101837.67;;;2.75;100.00
49645;BME280;36494;50.730;-1.932;2022-12-07T09:00:46;101837.70;;;2.77;100.00
49645;BME280;36494;50.730;-1.932;2022-12-07T09:03:11;101839.93;;;2.76;100.00
49645;BME280;36494;50.730;-1.932;2022-12-07T09:05:37;101842.81;;;2.81;100.00
49645;BME280;36494;50.730;-1.932;2022-12-07T09:08:02;101843.99;;;2.80;100.00
49645;BME280;36494;50.730;-1.932;2022-12-07T09:10:28;101845.01;;;2.84;100.00
49645;BME280;36494;50.730;-1.932;2022-12-07T09:12:53;101842.01;;;2.84;100.00
49645;BME280;36494;50.730;-1.932;2022-12-07T09:15:18;101842.17;;;2.83;100.00
49645;BME280;36494;50.730;-1.932;2022-12-07T09:17:44;101841.80;;;2.87;100.00
49645;BME280;36494;50.730;-1.932;2022-12-07T09:20:10;101842.11;;;2.91;100.00
49645;BME280;36494;50.730;-1.932;2022-12-07T09:22:35;101840.50;;;2.90;100.00
49645;BME280;36494;50.730;-1.932;2022-12-07T09:25:00;101843.41;;;2.94;100.00
49645;BME280;36494;50.730;-1.932;2022-12-07T09:27:27;101841.37;;;2.96;100.00
49645;BME280;36494;50.730;-1.932;2022-12-07T09:29:51;101842.23;;;2.93;100.00
49645;BME280;36494;50.730;-1.932;2022-12-07T09:32:16;101840.24;;;2.93;100.00
49645;BME280;36494;50.730;-1.932;2022-12-07T09:34:41;101835.87;;;2.97;100.00
49645;BME280;36494;50.730;-1.932;2022-12-07T09:37:08;101836.86;;;2.97;100.00
49645;BME280;36494;50.730;-1.932;2022-12-07T09:39:32;101834.18;;;2.99;100.00
49645;BME280;36494;50.730;-1.932;2022-12-07T09:41:59;101825.78;;;3.03;100.00
49645;BME280;36494;50.730;-1.932;2022-12-07T09:44:25;101826.07;;;3.09;100.00
49645;BME280;36494;50.730;-1.932;2022-12-07T09:46:48;101825.23;;;3.07;100.00
49645;BME280;36494;50.730;-1.932;2022-12-07T09:49:17;101824.20;;;3.11;100.00
49645;BME280;36494;50.730;-1.932;2022-12-07T09:51:40;101821.53;;;3.15;100.00
49645;BME280;36494;50.730;-1.932;2022-12-07T09:54:06;101819.49;;;3.21;100.00
49645;BME280;36494;50.730;-1.932;2022-12-07T09:56:31;101820.79;;;3.21;100.00
49645;BME280;36494;50.730;-1.932;2022-12-07T09:58:59;101818.31;;;3.19;100.00
49645;BME280;36494;50.730;-1.932;2022-12-07T10:01:22;101816.97;;;3.20;100.00
49645;BME280;36494;50.730;-1.932;2022-12-07T10:03:50;101816.20;;;3.17;100.00
49645;BME280;36494;50.730;-1.932;2022-12-07T10:06:13;101813.88;;;3.20;100.00
49645;BME280;36494;50.730;-1.932;2022-12-07T10:08:38;101808.46;;;3.13;100.00
49645;BME280;36494;50.730;-1.932;2022-12-07T10:11:04;101805.98;;;3.13;100.00
49645;BME280;36494;50.730;-1.932;2022-12-07T10:13:36;101807.64;;;3.13;100.00
49645;BME280;36494;50.730;-1.932;2022-12-07T10:15:56;101806.13;;;3.15;100.00
49645;BME280;36494;50.730;-1.932;2022-12-07T10:18:27;101807.32;;;3.04;100.00
49645;BME280;36494;50.730;-1.932;2022-12-07T10:20:45;101804.62;;;3.09;100.00
49645;BME280;36494;50.730;-1.932;2022-12-07T10:23:14;101805.02;;;3.09;100.00
49645;BME280;36494;50.730;-1.932;2022-12-07T10:25:37;101805.31;;;3.08;100.00
49645;BME280;36494;50.730;-1.932;2022-12-07T10:28:11;101806.19;;;3.09;100.00
49645;BME280;36494;50.730;-1.932;2022-12-07T10:30:27;101806.73;;;3.06;100.00
49645;BME280;36494;50.730;-1.932;2022-12-07T10:32:52;101801.97;;;3.04;100.00
49645;BME280;36494;50.730;-1.932;2022-12-07T10:35:22;101800.41;;;3.00;100.00
49645;BME280;36494;50.730;-1.932;2022-12-07T10:37:43;101796.44;;;2.90;100.00
49645;BME280;36494;50.730;-1.932;2022-12-07T10:40:25;101794.64;;;2.92;100.00
49645;BME280;36494;50.730;-1.932;2022-12-07T10:42:34;101795.61;;;2.97;100.00
49645;BME280;36494;50.730;-1.932;2022-12-07T10:45:07;101794.17;;;2.95;100.00
49645;BME280;36494;50.730;-1.932;2022-12-07T10:47:33;101793.51;;;2.96;100.00
49645;BME280;36494;50.730;-1.932;2022-12-07T10:50:04;101787.31;;;2.97;100.00
49645;BME280;36494;50.730;-1.932;2022-12-07T10:52:24;101786.80;;;2.96;100.00
49645;BME280;36494;50.730;-1.932;2022-12-07T10:54:48;101785.09;;;2.92;100.00
49645;BME280;36494;50.730;-1.932;2022-12-07T10:57:17;101783.88;;;2.95;100.00
49645;BME280;36494;50.730;-1.932;2022-12-07T10:59:44;101780.90;;;2.99;100.00
49645;BME280;36494;50.730;-1.932;2022-12-07T11:02:06;101779.48;;;2.94;100.00
49645;BME280;36494;50.730;-1.932;2022-12-07T11:04:30;101778.26;;;2.98;100.00
49645;BME280;36494;50.730;-1.932;2022-12-07T11:06:54;101774.73;;;3.03;100.00
49645;BME280;36494;50.730;-1.932;2022-12-07T11:09:29;101772.42;;;3.02;100.00
49645;BME280;36494;50.730;-1.932;2022-12-07T11:11:45;101768.05;;;3.06;100.00
49645;BME280;36494;50.730;-1.932;2022-12-07T11:14:15;101765.40;;;3.08;100.00
49645;BME280;36494;50.730;-1.932;2022-12-07T11:16:40;101763.07;;;3.11;100.00
49645;BME280;36494;50.730;-1.932;2022-12-07T11:19:16;101755.75;;;3.09;100.00
49645;BME280;36494;50.730;-1.932;2022-12-07T11:21:26;101753.73;;;3.13;100.00
49645;BME280;36494;50.730;-1.932;2022-12-07T11:23:54;101747.04;;;3.15;100.00
49645;BME280;36494;50.730;-1.932;2022-12-07T11:26:22;101740.33;;;3.12;100.00
49645;BME280;36494;50.730;-1.932;2022-12-07T11:28:52;101737.27;;;3.12;100.00
49645;BME280;36494;50.730;-1.932;2022-12-07T11:31:12;101731.49;;;3.17;100.00
49645;BME280;36494;50.730;-1.932;2022-12-07T11:33:33;101723.91;;;3.21;100.00
49645;BME280;36494;50.730;-1.932;2022-12-07T11:36:03;101720.71;;;3.19;100.00
49645;BME280;36494;50.730;-1.932;2022-12-07T11:38:23;101718.61;;;3.25;100.00
49645;BME280;36494;50.730;-1.932;2022-12-07T11:40:48;101717.39;;;3.25;100.00
49645;BME280;36494;50.730;-1.932;2022-12-07T11:43:17;101711.10;;;3.28;100.00
49645;BME280;36494;50.730;-1.932;2022-12-07T11:45:41;101707.33;;;3.27;100.00
49645;BME280;36494;50.730;-1.932;2022-12-07T11:48:05;101703.31;;;3.30;100.00
49645;BME280;36494;50.730;-1.932;2022-12-07T11:50:33;101700.09;;;3.34;100.00
49645;BME280;36494;50.730;-1.932;2022-12-07T11:52:56;101700.21;;;3.39;100.00
49645;BME280;36494;50.730;-1.932;2022-12-07T11:55:24;101695.86;;;3.37;100.00
49645;BME280;36494;50.730;-1.932;2022-12-07T11:57:46;101694.47;;;3.42;100.00
49645;BME280;36494;50.730;-1.932;2022-12-07T12:00:14;101695.90;;;3.45;100.00
49645;BME280;36494;50.730;-1.932;2022-12-07T12:02:38;101689.32;;;3.45;100.00
49645;BME280;36494;50.730;-1.932;2022-12-07T12:05:07;101685.05;;;3.48;100.00
49645;BME280;36494;50.730;-1.932;2022-12-07T12:07:27;101684.35;;;3.54;100.00
49645;BME280;36494;50.730;-1.932;2022-12-07T12:09:55;101683.33;;;3.57;100.00
49645;BME280;36494;50.730;-1.932;2022-12-07T12:12:31;101681.45;;;3.57;100.00
49645;BME280;36494;50.730;-1.932;2022-12-07T12:14:50;101675.15;;;3.60;100.00
49645;BME280;36494;50.730;-1.932;2022-12-07T12:17:20;101672.85;;;3.67;100.00
49645;BME280;36494;50.730;-1.932;2022-12-07T12:19:36;101668.79;;;3.71;100.00
49645;BME280;36494;50.730;-1.932;2022-12-07T12:22:04;101663.51;;;3.70;100.00
49645;BME280;36494;50.730;-1.932;2022-12-07T12:24:26;101661.76;;;3.89;100.00
49645;BME280;36494;50.730;-1.932;2022-12-07T12:26:50;101657.22;;;4.05;100.00
49645;BME280;36494;50.730;-1.932;2022-12-07T12:29:21;101652.53;;;4.21;100.00
49645;BME280;36494;50.730;-1.932;2022-12-07T12:31:40;101650.01;;;4.37;100.00